Time;durP1;ratioP1;P1;durP2;ratioP2;P2;SDS_P1;SDS_P2;PMS_P1;PMS_P2;Temp;Humidity;BMP_temperature;BMP_pressure;BME280_temperature;BME280_humidity;BME280_pressure;Samples;Min_cycle;Max_cycle;Signal;HPM_P1;HPM_P2
2023/12/06 00:00:22;;;;;;;;;;;;;;;;;;5076349;28;19920;-61
2023/12/06 00:02:49;;;;;;;;;;;;;;;;;;5076127;28;19925;-59
2023/12/06 00:05:16;;;;;;;;;;;;;;;;;;5076088;28;19931;-60
2023/12/06 00:07:42;;;;;;;;;;;;;;;;;;5088457;28;19935;-60
2023/12/06 00:10:09;;;;;;;;;;;;;;;;;;5096538;28;20297;-59
2023/12/06 00:12:35;;;;;;;;;;;;;;;;;;5096498;28;19920;-60
2023/12/06 00:15:02;;;;;;;;;;;;;;;;;;5096026;28;19920;-61
2023/12/06 00:17:28;;;;;;;;;;;;;;;;;;5095719;28;20353;-60
2023/12/06 00:19:55;;;;;;;;;;;;;;;;;;5096091;28;19927;-60
2023/12/06 00:22:21;;;;;;;;;;;;;;;;;;5092035;28;20387;-60
2023/12/06 00:24:48;;;;;;;;;;;;;;;;;;5096110;28;19920;-59
2023/12/06 00:27:14;;;;;;;;;;;;;;;;;;5081279;28;20376;-60
2023/12/06 00:29:41;;;;;;;;;;;;;;;;;;5075828;28;19920;-60
2023/12/06 00:32:07;;;;;;;;;;;;;;;;;;5076608;28;19927;-60
2023/12/06 00:34:34;;;;;;;;;;;;;;;;;;5095693;28;19920;-60
2023/12/06 00:37:00;;;;;;;;;;;;;;;;;;5087371;28;19920;-60
2023/12/06 00:39:27;;;;;;;;;;;;;;;;;;5075323;28;19920;-60
2023/12/06 00:41:53;;;;;;;;;;;;;;;;;;5075922;28;19921;-60
2023/12/06 00:44:20;;;;;;;;;;;;;;;;;;5075408;28;20376;-59
2023/12/06 00:46:46;;;;;;;;;;;;;;;;;;5075241;28;19920;-60
2023/12/06 00:49:13;;;;;;;;;;;;;;;;;;5075252;28;19920;-60
2023/12/06 00:51:40;;;;;;;;;;;;;;;;;;5078658;28;20364;-60
2023/12/06 00:54:07;;;;;;;;;;;;;;;;;;5095491;28;19920;-60
2023/12/06 00:56:33;;;;;;;;;;;;;;;;;;5095308;28;19927;-60
2023/12/06 00:59:00;;;;;;;;;;;;;;;;;;5095355;28;19931;-60
2023/12/06 01:01:26;;;;;;;;;;;;;;;;;;5094691;28;19927;-59
2023/12/06 01:03:53;;;;;;;;;;;;;;;;;;5094415;28;19920;-60
2023/12/06 01:06:19;;;;;;;;;;;;;;;;;;5095329;28;19927;-59
2023/12/06 01:08:49;;;;;;;;;;;;;;;;;;5075586;28;20292;-60
2023/12/06 01:11:15;;;;;;;;;;;;;;;;;;5075145;28;19920;-61
2023/12/06 01:13:41;;;;;;;;;;;;;;;;;;5076623;28;20364;-60
2023/12/06 01:16:08;;;;;;;;;;;;;;;;;;5095003;28;19920;-60
2023/12/06 01:18:35;;;;;;;;;;;;;;;;;;5095139;28;19920;-60
2023/12/06 01:21:01;;;;;;;;;;;;;;;;;;5095069;28;19920;-60
2023/12/06 01:23:28;;;;;;;;;;;;;;;;;;5076924;28;19927;-60
2023/12/06 01:25:54;;;;;;;;;;;;;;;;;;5074321;28;19935;-60
2023/12/06 01:28:21;;;;;;;;;;;;;;;;;;5074408;28;19943;-60
2023/12/06 01:30:47;;;;;;;;;;;;;;;;;;5074400;28;19921;-59
2023/12/06 01:33:14;;;;;;;;;;;;;;;;;;5089974;28;19920;-60
2023/12/06 01:35:40;;;;;;;;;;;;;;;;;;5094338;28;19931;-59
2023/12/06 01:38:07;;;;;;;;;;;;;;;;;;5092253;28;20013;-60
2023/12/06 01:40:33;;;;;;;;;;;;;;;;;;5094252;28;20345;-59
2023/12/06 01:43:00;;;;;;;;;;;;;;;;;;5079947;28;19935;-60
2023/12/06 01:45:26;;;;;;;;;;;;;;;;;;5074238;28;19927;-60
2023/12/06 01:47:53;;;;;;;;;;;;;;;;;;5074172;28;19927;-59
2023/12/06 01:50:19;;;;;;;;;;;;;;;;;;5073900;28;19920;-60
2023/12/06 01:52:46;;;;;;;;;;;;;;;;;;5074338;28;19935;-59
2023/12/06 01:55:12;;;;;;;;;;;;;;;;;;5074181;28;19920;-60
2023/12/06 01:57:39;;;;;;;;;;;;;;;;;;5074223;28;19927;-60
2023/12/06 02:00:07;;;;;;;;;;;;;;;;;;5074134;28;19921;-60
2023/12/06 02:02:33;;;;;;;;;;;;;;;;;;5083504;28;19920;-59
2023/12/06 02:05:00;;;;;;;;;;;;;;;;;;5094120;28;19920;-59
2023/12/06 02:07:26;;;;;;;;;;;;;;;;;;5090054;28;19920;-59
2023/12/06 02:09:52;;;;;;;;;;;;;;;;;;5073854;28;19920;-59
2023/12/06 02:12:18;;;;;;;;;;;;;;;;;;5074016;28;20376;-60
2023/12/06 02:14:45;;;;;;;;;;;;;;;;;;5073630;28;20270;-59
2023/12/06 02:17:11;;;;;;;;;;;;;;;;;;5078122;28;19924;-59
2023/12/06 02:19:37;;;;;;;;;;;;;;;;;;5093635;28;19927;-59
2023/12/06 02:22:04;;;;;;;;;;;;;;;;;;5092664;28;19920;-60
2023/12/06 02:24:31;;;;;;;;;;;;;;;;;;5090300;28;19936;-60
2023/12/06 02:26:57;;;;;;;;;;;;;;;;;;5093044;28;19928;-59
2023/12/06 02:29:24;;;;;;;;;;;;;;;;;;5093744;28;19920;-59
2023/12/06 02:31:50;;;;;;;;;;;;;;;;;;5093930;28;19921;-60
2023/12/06 02:34:17;;;;;;;;;;;;;;;;;;5093721;28;19927;-59
2023/12/06 02:36:43;;;;;;;;;;;;;;;;;;5093692;28;19939;-60
2023/12/06 02:39:10;;;;;;;;;;;;;;;;;;5073036;28;19928;-59
2023/12/06 02:41:36;;;;;;;;;;;;;;;;;;5073285;28;19920;-60
2023/12/06 02:44:03;;;;;;;;;;;;;;;;;;5072867;28;19920;-59
2023/12/06 02:46:29;;;;;;;;;;;;;;;;;;5072666;28;19927;-60
2023/12/06 02:48:57;;;;;;;;;;;;;;;;;;5072757;28;20373;-60
2023/12/06 02:51:23;;;;;;;;;;;;;;;;;;5073189;28;19934;-59
2023/12/06 02:53:49;;;;;;;;;;;;;;;;;;5073717;28;19974;-59
2023/12/06 02:56:16;;;;;;;;;;;;;;;;;;5073253;28;19920;-60
2023/12/06 02:58:42;;;;;;;;;;;;;;;;;;5072952;28;19924;-60
2023/12/06 03:01:09;;;;;;;;;;;;;;;;;;5072870;28;19920;-60
2023/12/06 03:03:35;;;;;;;;;;;;;;;;;;5072737;28;19921;-60
2023/12/06 03:06:02;;;;;;;;;;;;;;;;;;5073003;28;20313;-59
2023/12/06 03:08:28;;;;;;;;;;;;;;;;;;5073541;28;19927;-59
2023/12/06 03:10:55;;;;;;;;;;;;;;;;;;5072999;28;20345;-59
2023/12/06 03:13:21;;;;;;;;;;;;;;;;;;5073077;28;19924;-59
2023/12/06 03:15:48;;;;;;;;;;;;;;;;;;5072588;28;19920;-59
2023/12/06 03:18:14;;;;;;;;;;;;;;;;;;5072830;28;19920;-59
2023/12/06 03:20:41;;;;;;;;;;;;;;;;;;5072735;28;19971;-59
2023/12/06 03:23:07;;;;;;;;;;;;;;;;;;5072744;28;19920;-59
2023/12/06 03:25:34;;;;;;;;;;;;;;;;;;5072832;28;19990;-59
2023/12/06 03:27:59;;;;;;;;;;;;;;;;;;5093148;28;20296;-59
2023/12/06 03:30:26;;;;;;;;;;;;;;;;;;5097348;28;19916;-59
2023/12/06 03:32:52;;;;;;;;;;;;;;;;;;5096790;28;19931;-59
2023/12/06 03:35:19;;;;;;;;;;;;;;;;;;5097041;28;20360;-61
2023/12/06 03:37:45;;;;;;;;;;;;;;;;;;5083040;28;19927;-60
2023/12/06 03:40:12;;;;;;;;;;;;;;;;;;5076606;28;19924;-60
2023/12/06 03:42:39;;;;;;;;;;;;;;;;;;5075977;28;19920;-60
2023/12/06 03:45:06;;;;;;;;;;;;;;;;;;5076786;28;20292;-59
2023/12/06 03:47:32;;;;;;;;;;;;;;;;;;5089345;28;19924;-59
2023/12/06 03:49:59;;;;;;;;;;;;;;;;;;5097155;28;19919;-59
2023/12/06 03:52:25;;;;;;;;;;;;;;;;;;5087893;28;19920;-60
2023/12/06 03:54:52;;;;;;;;;;;;;;;;;;5076146;28;19926;-59
2023/12/06 03:57:18;;;;;;;;;;;;;;;;;;5076596;28;19928;-59
2023/12/06 03:59:44;;;;;;;;;;;;;;;;;;5076411;28;19920;-59
2023/12/06 04:02:11;;;;;;;;;;;;;;;;;;5076577;28;19928;-59
2023/12/06 04:04:37;;;;;;;;;;;;;;;;;;5086700;28;19920;-59
2023/12/06 04:07:04;;;;;;;;;;;;;;;;;;5091952;28;20246;-59
2023/12/06 04:09:30;;;;;;;;;;;;;;;;;;5090637;28;19924;-59
2023/12/06 04:11:57;;;;;;;;;;;;;;;;;;5076103;28;19920;-60
2023/12/06 04:14:23;;;;;;;;;;;;;;;;;;5076115;28;19920;-60
2023/12/06 04:16:50;;;;;;;;;;;;;;;;;;5075983;28;19920;-59
2023/12/06 04:19:17;;;;;;;;;;;;;;;;;;5075973;28;19920;-59
2023/12/06 04:21:43;;;;;;;;;;;;;;;;;;5076165;28;20403;-59
2023/12/06 04:24:09;;;;;;;;;;;;;;;;;;5094622;28;19927;-59
2023/12/06 04:26:36;;;;;;;;;;;;;;;;;;5079665;28;19920;-60
2023/12/06 04:29:02;;;;;;;;;;;;;;;;;;5075619;28;19931;-59
2023/12/06 04:31:29;;;;;;;;;;;;;;;;;;5075943;28;19927;-60
2023/12/06 04:33:55;;;;;;;;;;;;;;;;;;5094233;28;19919;-59
2023/12/06 04:36:22;;;;;;;;;;;;;;;;;;5095957;28;20107;-58
2023/12/06 04:38:48;;;;;;;;;;;;;;;;;;5079219;28;19996;-60
2023/12/06 04:41:15;;;;;;;;;;;;;;;;;;5075666;28;20280;-60
2023/12/06 04:43:41;;;;;;;;;;;;;;;;;;5091943;28;19919;-60
2023/12/06 04:46:08;;;;;;;;;;;;;;;;;;5087681;28;19969;-60
2023/12/06 04:48:34;;;;;;;;;;;;;;;;;;5095329;28;19920;-60
2023/12/06 04:51:02;;;;;;;;;;;;;;;;;;5095609;28;19977;-60
2023/12/06 04:53:29;;;;;;;;;;;;;;;;;;5092883;28;19920;-60
2023/12/06 04:55:55;;;;;;;;;;;;;;;;;;5095458;28;20291;-60
2023/12/06 04:58:22;;;;;;;;;;;;;;;;;;5095620;28;19927;-60
2023/12/06 05:00:50;;;;;;;;;;;;;;;;;;5095398;28;19920;-60
2023/12/06 05:03:16;;;;;;;;;;;;;;;;;;5081839;28;19924;-60
2023/12/06 05:05:43;;;;;;;;;;;;;;;;;;5074971;28;19928;-59
2023/12/06 05:08:09;;;;;;;;;;;;;;;;;;5075190;28;20370;-60
2023/12/06 05:10:36;;;;;;;;;;;;;;;;;;5075149;28;19920;-60
2023/12/06 05:13:02;;;;;;;;;;;;;;;;;;5085204;28;20032;-59
2023/12/06 05:15:29;;;;;;;;;;;;;;;;;;5094414;28;20384;-58
2023/12/06 05:17:56;;;;;;;;;;;;;;;;;;5095198;28;19920;-59
2023/12/06 05:20:23;;;;;;;;;;;;;;;;;;5094584;28;19927;-60
2023/12/06 05:22:49;;;;;;;;;;;;;;;;;;5086489;28;19921;-59
2023/12/06 05:25:15;;;;;;;;;;;;;;;;;;5074970;28;20349;-59
2023/12/06 05:27:42;;;;;;;;;;;;;;;;;;5076063;28;19928;-59
2023/12/06 05:30:08;;;;;;;;;;;;;;;;;;5074397;28;19921;-59
2023/12/06 05:32:36;;;;;;;;;;;;;;;;;;5074829;28;19928;-59
2023/12/06 05:35:02;;;;;;;;;;;;;;;;;;5074780;28;19921;-60
2023/12/06 05:37:29;;;;;;;;;;;;;;;;;;5074726;28;19927;-59
2023/12/06 05:39:55;;;;;;;;;;;;;;;;;;5074162;28;20380;-59
2023/12/06 05:42:22;;;;;;;;;;;;;;;;;;5074495;28;19920;-60
2023/12/06 05:44:48;;;;;;;;;;;;;;;;;;5073788;28;19920;-60
2023/12/06 05:47:15;;;;;;;;;;;;;;;;;;5078276;28;20280;-63
2023/12/06 05:49:41;;;;;;;;;;;;;;;;;;5073329;28;19920;-63
2023/12/06 05:52:08;;;;;;;;;;;;;;;;;;5075019;28;19920;-63
2023/12/06 05:54:34;;;;;;;;;;;;;;;;;;5084649;28;19920;-63
2023/12/06 05:57:01;;;;;;;;;;;;;;;;;;5094352;28;19924;-63
2023/12/06 05:59:27;;;;;;;;;;;;;;;;;;5094060;28;20356;-64
2023/12/06 06:01:54;;;;;;;;;;;;;;;;;;5094101;28;19931;-64
2023/12/06 06:04:20;;;;;;;;;;;;;;;;;;5081505;28;19920;-63
2023/12/06 06:06:47;;;;;;;;;;;;;;;;;;5074344;28;19921;-62
2023/12/06 06:09:14;;;;;;;;;;;;;;;;;;5073340;28;20000;-63
2023/12/06 06:11:40;;;;;;;;;;;;;;;;;;5073226;28;19920;-63
2023/12/06 06:14:07;;;;;;;;;;;;;;;;;;5073371;28;20384;-61
2023/12/06 06:16:33;;;;;;;;;;;;;;;;;;5082999;28;19947;-63
2023/12/06 06:19:00;;;;;;;;;;;;;;;;;;5092154;28;19928;-63
2023/12/06 06:21:26;;;;;;;;;;;;;;;;;;5093673;28;19927;-63
2023/12/06 06:23:53;;;;;;;;;;;;;;;;;;5074688;28;20380;-63
2023/12/06 06:26:20;;;;;;;;;;;;;;;;;;5073340;28;19921;-63
2023/12/06 06:28:46;;;;;;;;;;;;;;;;;;5089123;28;19927;-63
2023/12/06 06:31:12;;;;;;;;;;;;;;;;;;5093651;28;19920;-63
2023/12/06 06:33:39;;;;;;;;;;;;;;;;;;5093676;28;19927;-63
2023/12/06 06:36:06;;;;;;;;;;;;;;;;;;5093174;28;19920;-63
2023/12/06 06:38:32;;;;;;;;;;;;;;;;;;5078764;28;20027;-63
2023/12/06 06:40:58;;;;;;;;;;;;;;;;;;5073014;28;19927;-63
2023/12/06 06:43:25;;;;;;;;;;;;;;;;;;5072964;28;19927;-63
2023/12/06 06:45:51;;;;;;;;;;;;;;;;;;5074835;28;19921;-63
2023/12/06 06:48:17;;;;;;;;;;;;;;;;;;5080889;28;19967;-63
2023/12/06 06:50:43;;;;;;;;;;;;;;;;;;5078287;28;19915;-63
2023/12/06 06:53:10;;;;;;;;;;;;;;;;;;5083650;28;20282;-63
2023/12/06 06:55:36;;;;;;;;;;;;;;;;;;5082971;28;19920;-62
2023/12/06 06:58:03;;;;;;;;;;;;;;;;;;5093244;28;19935;-63
2023/12/06 07:00:30;;;;;;;;;;;;;;;;;;5088952;28;19920;-63
2023/12/06 07:02:55;;;;;;;;;;;;;;;;;;5072484;28;19927;-62
2023/12/06 07:05:22;;;;;;;;;;;;;;;;;;5073255;28;19923;-63
2023/12/06 07:07:48;;;;;;;;;;;;;;;;;;5072428;28;19921;-63
2023/12/06 07:10:15;;;;;;;;;;;;;;;;;;5074025;28;19924;-63
2023/12/06 07:12:41;;;;;;;;;;;;;;;;;;5093306;28;19920;-63
2023/12/06 07:15:14;;;;;;;;;;;;;;;;;;5092492;28;19927;-63
2023/12/06 07:17:41;;;;;;;;;;;;;;;;;;5092826;28;19927;-63
2023/12/06 07:20:08;;;;;;;;;;;;;;;;;;5091750;28;20305;-63
2023/12/06 07:22:34;;;;;;;;;;;;;;;;;;5092519;28;19947;-63
2023/12/06 07:25:01;;;;;;;;;;;;;;;;;;5072719;28;19928;-63
2023/12/06 07:27:27;;;;;;;;;;;;;;;;;;5085139;28;19927;-63
2023/12/06 07:29:54;;;;;;;;;;;;;;;;;;5092647;28;19940;-63
2023/12/06 07:32:21;;;;;;;;;;;;;;;;;;5092218;28;20257;-63
2023/12/06 07:34:48;;;;;;;;;;;;;;;;;;5092802;28;20369;-63
2023/12/06 07:37:14;;;;;;;;;;;;;;;;;;5092978;28;20335;-63
2023/12/06 07:39:40;;;;;;;;;;;;;;;;;;5076940;28;19924;-63
2023/12/06 07:42:07;;;;;;;;;;;;;;;;;;5072691;28;19920;-63
2023/12/06 07:44:34;;;;;;;;;;;;;;;;;;5071973;28;19931;-62
2023/12/06 07:47:00;;;;;;;;;;;;;;;;;;5083892;28;19927;-63
2023/12/06 07:49:27;;;;;;;;;;;;;;;;;;5091857;28;19919;-63
2023/12/06 07:51:55;;;;;;;;;;;;;;;;;;5093098;28;19927;-62
2023/12/06 07:54:21;;;;;;;;;;;;;;;;;;5090262;28;19920;-63
2023/12/06 07:56:48;;;;;;;;;;;;;;;;;;5091795;28;19920;-63
2023/12/06 07:59:14;;;;;;;;;;;;;;;;;;5092735;28;19920;-63
2023/12/06 08:01:43;;;;;;;;;;;;;;;;;;5092659;28;19920;-63
2023/12/06 08:04:09;;;;;;;;;;;;;;;;;;5089129;28;19920;-63
2023/12/06 08:06:36;;;;;;;;;;;;;;;;;;5076399;28;19924;-63
2023/12/06 08:09:10;;;;;;;;;;;;;;;;;;5077320;28;19931;-63
2023/12/06 08:11:37;;;;;;;;;;;;;;;;;;5085227;28;19927;-63
2023/12/06 08:14:03;;;;;;;;;;;;;;;;;;5076391;28;19921;-64
2023/12/06 08:16:30;;;;;;;;;;;;;;;;;;5096373;28;20272;-65
2023/12/06 08:18:56;;;;;;;;;;;;;;;;;;5088862;28;19920;-64
2023/12/06 08:21:24;;;;;;;;;;;;;;;;;;5082628;28;19927;-63
2023/12/06 08:23:50;;;;;;;;;;;;;;;;;;5085859;28;19928;-63
2023/12/06 08:26:17;;;;;;;;;;;;;;;;;;5086966;28;19928;-63
2023/12/06 08:28:44;;;;;;;;;;;;;;;;;;5075281;28;19928;-64
2023/12/06 08:31:10;;;;;;;;;;;;;;;;;;5093087;28;19920;-63
2023/12/06 08:33:37;;;;;;;;;;;;;;;;;;5090903;28;19920;-64
2023/12/06 08:36:03;;;;;;;;;;;;;;;;;;5088076;28;19927;-64
2023/12/06 08:38:30;;;;;;;;;;;;;;;;;;5075462;28;20392;-64
2023/12/06 08:40:56;;;;;;;;;;;;;;;;;;5075835;28;19995;-64
2023/12/06 08:43:23;;;;;;;;;;;;;;;;;;5084362;28;19920;-63
2023/12/06 08:45:49;;;;;;;;;;;;;;;;;;5083378;28;19920;-64
2023/12/06 08:48:16;;;;;;;;;;;;;;;;;;5093133;28;20292;-64
2023/12/06 08:50:42;;;;;;;;;;;;;;;;;;5094495;28;19928;-63
2023/12/06 08:53:09;;;;;;;;;;;;;;;;;;5095583;28;20261;-63
2023/12/06 08:55:35;;;;;;;;;;;;;;;;;;5076591;28;19927;-63
2023/12/06 08:58:02;;;;;;;;;;;;;;;;;;5088666;28;19919;-63
2023/12/06 09:00:28;;;;;;;;;;;;;;;;;;5085740;28;19927;-63
2023/12/06 09:02:55;;;;;;;;;;;;;;;;;;5077066;28;20399;-63
2023/12/06 09:05:21;;;;;;;;;;;;;;;;;;5095955;28;19920;-63
2023/12/06 09:07:48;;;;;;;;;;;;;;;;;;5075859;28;20377;-63
2023/12/06 09:10:15;;;;;;;;;;;;;;;;;;5076716;28;19936;-63
2023/12/06 09:12:42;;;;;;;;;;;;;;;;;;5082680;28;19943;-63
2023/12/06 09:15:08;;;;;;;;;;;;;;;;;;5079070;28;19920;-62
2023/12/06 09:17:35;;;;;;;;;;;;;;;;;;5076740;28;19921;-63
2023/12/06 09:20:01;;;;;;;;;;;;;;;;;;5089145;28;20270;-62
2023/12/06 09:22:28;;;;;;;;;;;;;;;;;;5076962;28;19928;-63
2023/12/06 09:24:54;;;;;;;;;;;;;;;;;;5083033;28;19935;-63
2023/12/06 09:27:21;;;;;;;;;;;;;;;;;;5078238;28;20632;-63
2023/12/06 09:29:47;;;;;;;;;;;;;;;;;;5079388;28;19927;-62
2023/12/06 09:32:14;;;;;;;;;;;;;;;;;;5074720;28;20278;-63
2023/12/06 09:34:41;;;;;;;;;;;;;;;;;;5075207;28;19927;-64
2023/12/06 09:37:08;;;;;;;;;;;;;;;;;;5074544;28;19927;-63
2023/12/06 09:39:34;;;;;;;;;;;;;;;;;;5084032;28;19920;-63
2023/12/06 09:42:01;;;;;;;;;;;;;;;;;;5089845;28;19920;-63
2023/12/06 09:44:27;;;;;;;;;;;;;;;;;;5075643;28;19927;-64
2023/12/06 09:46:54;;;;;;;;;;;;;;;;;;5080331;28;19921;-64
2023/12/06 09:49:20;;;;;;;;;;;;;;;;;;5075676;28;19939;-63
2023/12/06 09:51:47;;;;;;;;;;;;;;;;;;5087059;28;19920;-63
2023/12/06 09:54:13;;;;;;;;;;;;;;;;;;5074790;28;19920;-63
2023/12/06 09:56:40;;;;;;;;;;;;;;;;;;5074223;28;19920;-63
2023/12/06 09:59:06;;;;;;;;;;;;;;;;;;5074291;28;19924;-63
2023/12/06 10:01:33;;;;;;;;;;;;;;;;;;5079278;28;19920;-63
2023/12/06 10:03:59;;;;;;;;;;;;;;;;;;5092560;28;19920;-63
2023/12/06 10:06:26;;;;;;;;;;;;;;;;;;5073710;28;19920;-63
2023/12/06 10:08:52;;;;;;;;;;;;;;;;;;5088403;28;19927;-63
2023/12/06 10:11:19;;;;;;;;;;;;;;;;;;5092495;28;19935;-64
2023/12/06 10:13:46;;;;;;;;;;;;;;;;;;5092834;28;20379;-63
2023/12/06 10:16:13;;;;;;;;;;;;;;;;;;5076557;28;19928;-64
2023/12/06 10:18:39;;;;;;;;;;;;;;;;;;5075585;28;19920;-63
2023/12/06 10:21:06;;;;;;;;;;;;;;;;;;5077511;28;19927;-62
2023/12/06 10:23:32;;;;;;;;;;;;;;;;;;5080564;28;19920;-63
2023/12/06 10:25:58;;;;;;;;;;;;;;;;;;5075630;28;19943;-64
2023/12/06 10:28:25;;;;;;;;;;;;;;;;;;5073814;28;19916;-63
2023/12/06 10:30:52;;;;;;;;;;;;;;;;;;5073219;28;19927;-64
2023/12/06 10:33:18;;;;;;;;;;;;;;;;;;5073096;28;19928;-64
2023/12/06 10:35:45;;;;;;;;;;;;;;;;;;5072883;28;19920;-63
2023/12/06 10:38:11;;;;;;;;;;;;;;;;;;5073174;28;19920;-63
2023/12/06 10:40:39;;;;;;;;;;;;;;;;;;5074314;28;19920;-63
2023/12/06 10:43:07;;;;;;;;;;;;;;;;;;5081247;28;20313;-63
2023/12/06 10:45:33;;;;;;;;;;;;;;;;;;5073813;28;19922;-64
2023/12/06 10:48:00;;;;;;;;;;;;;;;;;;5073348;28;19927;-63
2023/12/06 10:50:26;;;;;;;;;;;;;;;;;;5086606;28;19939;-63
2023/12/06 10:52:53;;;;;;;;;;;;;;;;;;5090178;28;20340;-63
2023/12/06 10:55:19;;;;;;;;;;;;;;;;;;5093219;28;19946;-63
2023/12/06 10:57:46;;;;;;;;;;;;;;;;;;5074565;28;20369;-64
2023/12/06 11:00:12;;;;;;;;;;;;;;;;;;5085794;28;19927;-63
2023/12/06 11:02:39;;;;;;;;;;;;;;;;;;5084527;28;19920;-63
2023/12/06 11:05:06;;;;;;;;;;;;;;;;;;5076042;28;19920;-63
2023/12/06 11:07:32;;;;;;;;;;;;;;;;;;5077439;28;19921;-63
2023/12/06 11:09:59;;;;;;;;;;;;;;;;;;5072648;28;19928;-63
2023/12/06 11:12:25;;;;;;;;;;;;;;;;;;5086226;28;19942;-64
2023/12/06 11:14:51;;;;;;;;;;;;;;;;;;5083818;28;19920;-63
2023/12/06 11:17:18;;;;;;;;;;;;;;;;;;5073511;28;19920;-63
2023/12/06 11:19:44;;;;;;;;;;;;;;;;;;5072928;28;19927;-63
2023/12/06 11:22:11;;;;;;;;;;;;;;;;;;5072796;28;19939;-63
2023/12/06 11:24:38;;;;;;;;;;;;;;;;;;5086277;28;19920;-64
2023/12/06 11:27:05;;;;;;;;;;;;;;;;;;5083150;28;20239;-63
2023/12/06 11:29:31;;;;;;;;;;;;;;;;;;5076239;28;19920;-63
2023/12/06 11:31:58;;;;;;;;;;;;;;;;;;5092042;28;19937;-63
2023/12/06 11:34:24;;;;;;;;;;;;;;;;;;5073377;28;19944;-63
2023/12/06 11:36:51;;;;;;;;;;;;;;;;;;5084728;28;19920;-63
2023/12/06 11:39:16;;;;;;;;;;;;;;;;;;5072465;28;19925;-63
2023/12/06 11:41:45;;;;;;;;;;;;;;;;;;5087049;28;19926;-64
2023/12/06 11:44:11;;;;;;;;;;;;;;;;;;5091545;28;19920;-63
2023/12/06 11:46:38;;;;;;;;;;;;;;;;;;5092421;28;19920;-63
2023/12/06 11:49:04;;;;;;;;;;;;;;;;;;5093211;28;19920;-63
2023/12/06 11:51:31;;;;;;;;;;;;;;;;;;5090714;28;19927;-63
2023/12/06 11:53:57;;;;;;;;;;;;;;;;;;5095453;28;19954;-64
2023/12/06 11:56:24;;;;;;;;;;;;;;;;;;5095415;28;20353;-64
2023/12/06 11:58:50;;;;;;;;;;;;;;;;;;5075771;28;19924;-63
2023/12/06 12:01:17;;;;;;;;;;;;;;;;;;5091408;28;19924;-63
2023/12/06 12:03:44;;;;;;;;;;;;;;;;;;5092014;28;20329;-63
2023/12/06 12:06:10;;;;;;;;;;;;;;;;;;5089884;28;20345;-63
2023/12/06 12:08:37;;;;;;;;;;;;;;;;;;5076756;28;19924;-63
2023/12/06 12:11:04;;;;;;;;;;;;;;;;;;5096064;28;19920;-63
2023/12/06 12:13:30;;;;;;;;;;;;;;;;;;5079127;28;19968;-63
2023/12/06 12:15:57;;;;;;;;;;;;;;;;;;5087084;28;19927;-63
2023/12/06 12:18:23;;;;;;;;;;;;;;;;;;5088668;28;19920;-49
2023/12/06 12:20:50;;;;;;;;;;;;;;;;;;5075605;28;19920;-47
2023/12/06 12:23:16;;;;;;;;;;;;;;;;;;5073567;28;19921;-67
2023/12/06 12:25:43;;;;;;;;;;;;;;;;;;5089587;28;19947;-66
2023/12/06 12:28:09;;;;;;;;;;;;;;;;;;5083185;28;19921;-67
2023/12/06 12:30:36;;;;;;;;;;;;;;;;;;5074822;28;20373;-66
2023/12/06 12:33:03;;;;;;;;;;;;;;;;;;5084880;28;19927;-67
2023/12/06 12:35:29;;;;;;;;;;;;;;;;;;5095260;28;19931;-66
2023/12/06 12:37:56;;;;;;;;;;;;;;;;;;5082998;28;20361;-67
2023/12/06 12:40:22;;;;;;;;;;;;;;;;;;5086852;28;19920;-67
2023/12/06 12:42:49;;;;;;;;;;;;;;;;;;5076065;28;20380;-67
2023/12/06 12:45:17;;;;;;;;;;;;;;;;;;5093596;28;19920;-67
2023/12/06 12:47:44;;;;;;;;;;;;;;;;;;5075423;28;19927;-67
2023/12/06 12:50:10;;;;;;;;;;;;;;;;;;5074793;28;19928;-68
2023/12/06 12:52:38;;;;;;;;;;;;;;;;;;5073904;28;19920;-66
2023/12/06 12:55:05;;;;;;;;;;;;;;;;;;5090900;28;20380;-67
2023/12/06 12:57:31;;;;;;;;;;;;;;;;;;5084884;28;20302;-65
2023/12/06 12:59:58;;;;;;;;;;;;;;;;;;5093173;28;19927;-67
2023/12/06 13:02:24;;;;;;;;;;;;;;;;;;5074851;28;19920;-66
2023/12/06 13:04:51;;;;;;;;;;;;;;;;;;5087376;28;19920;-67
2023/12/06 13:07:17;;;;;;;;;;;;;;;;;;5085088;28;19939;-68
2023/12/06 13:09:44;;;;;;;;;;;;;;;;;;5086538;28;19935;-67
2023/12/06 13:12:10;;;;;;;;;;;;;;;;;;5081421;28;19927;-67
2023/12/06 13:14:37;;;;;;;;;;;;;;;;;;5081344;28;20341;-68
2023/12/06 13:17:04;;;;;;;;;;;;;;;;;;5077664;28;19951;-67
2023/12/06 13:19:30;;;;;;;;;;;;;;;;;;5075178;28;19921;-67
2023/12/06 13:21:57;;;;;;;;;;;;;;;;;;5078986;28;19920;-67
2023/12/06 13:24:23;;;;;;;;;;;;;;;;;;5077361;28;19944;-67
2023/12/06 13:26:50;;;;;;;;;;;;;;;;;;5094814;28;19920;-67
2023/12/06 13:29:16;;;;;;;;;;;;;;;;;;5094810;28;19920;-67
2023/12/06 13:31:43;;;;;;;;;;;;;;;;;;5094211;28;19935;-67
2023/12/06 13:34:09;;;;;;;;;;;;;;;;;;5075882;28;20246;-67
2023/12/06 13:36:37;;;;;;;;;;;;;;;;;;5073064;28;19920;-67
2023/12/06 13:39:04;;;;;;;;;;;;;;;;;;5073498;28;19920;-67
2023/12/06 13:41:30;;;;;;;;;;;;;;;;;;5074550;28;20277;-68
2023/12/06 13:43:57;;;;;;;;;;;;;;;;;;5088138;28;19943;-67
2023/12/06 13:46:23;;;;;;;;;;;;;;;;;;5094417;28;19927;-68
2023/12/06 13:48:50;;;;;;;;;;;;;;;;;;5092313;28;20276;-67
2023/12/06 13:51:16;;;;;;;;;;;;;;;;;;5082677;28;20373;-67
2023/12/06 13:53:43;;;;;;;;;;;;;;;;;;5077019;28;20403;-67
2023/12/06 13:56:09;;;;;;;;;;;;;;;;;;5077834;28;19924;-68
2023/12/06 13:58:36;;;;;;;;;;;;;;;;;;5075767;28;19927;-67
2023/12/06 14:01:03;;;;;;;;;;;;;;;;;;5083365;28;19920;-66
2023/12/06 14:03:30;;;;;;;;;;;;;;;;;;5078526;28;20567;-66
2023/12/06 14:05:58;;;;;;;;;;;;;;;;;;5087160;28;19920;-67
2023/12/06 14:08:26;;;;;;;;;;;;;;;;;;5081973;28;20277;-68
2023/12/06 14:10:53;;;;;;;;;;;;;;;;;;5080726;28;20288;-67
2023/12/06 14:13:19;;;;;;;;;;;;;;;;;;5080447;28;19924;-67
2023/12/06 14:15:46;;;;;;;;;;;;;;;;;;5091929;28;19927;-66
2023/12/06 14:18:12;;;;;;;;;;;;;;;;;;5083254;28;19943;-67
2023/12/06 14:20:39;;;;;;;;;;;;;;;;;;5073319;28;19931;-67
2023/12/06 14:23:05;;;;;;;;;;;;;;;;;;5082375;28;19920;-66
2023/12/06 14:25:32;;;;;;;;;;;;;;;;;;5092105;28;20284;-66
2023/12/06 14:27:58;;;;;;;;;;;;;;;;;;5088388;28;19920;-66
2023/12/06 14:30:25;;;;;;;;;;;;;;;;;;5091885;28;19927;-67
2023/12/06 14:32:51;;;;;;;;;;;;;;;;;;5093577;28;19927;-67
2023/12/06 14:35:20;;;;;;;;;;;;;;;;;;5089356;28;19940;-67
2023/12/06 14:37:47;;;;;;;;;;;;;;;;;;5086834;28;20376;-66
2023/12/06 14:40:14;;;;;;;;;;;;;;;;;;5074199;28;19983;-66
2023/12/06 14:42:40;;;;;;;;;;;;;;;;;;5073498;28;19924;-66
2023/12/06 14:45:09;;;;;;;;;;;;;;;;;;5081628;28;20403;-66
2023/12/06 14:47:35;;;;;;;;;;;;;;;;;;5084350;28;19920;-66
2023/12/06 14:50:03;;;;;;;;;;;;;;;;;;5073079;28;20369;-67
2023/12/06 14:52:29;;;;;;;;;;;;;;;;;;5072736;28;19931;-66
2023/12/06 14:54:56;;;;;;;;;;;;;;;;;;5073145;28;19920;-66
2023/12/06 14:57:22;;;;;;;;;;;;;;;;;;5073989;28;19921;-66
2023/12/06 14:59:49;;;;;;;;;;;;;;;;;;5075558;28;19947;-65
2023/12/06 15:02:15;;;;;;;;;;;;;;;;;;5074695;28;19921;-66
2023/12/06 15:04:42;;;;;;;;;;;;;;;;;;5073328;28;19921;-66
2023/12/06 15:07:08;;;;;;;;;;;;;;;;;;5073042;28;19920;-65
2023/12/06 15:09:35;;;;;;;;;;;;;;;;;;5074801;28;19943;-66
2023/12/06 15:12:02;;;;;;;;;;;;;;;;;;5070061;28;19927;-65
2023/12/06 15:14:28;;;;;;;;;;;;;;;;;;5080321;28;19920;-67
2023/12/06 15:16:54;;;;;;;;;;;;;;;;;;5086049;28;19920;-66
2023/12/06 15:19:21;;;;;;;;;;;;;;;;;;5087874;28;19924;-67
2023/12/06 15:21:47;;;;;;;;;;;;;;;;;;5078650;28;20471;-67
2023/12/06 15:24:14;;;;;;;;;;;;;;;;;;5078183;28;19920;-67
2023/12/06 15:26:40;;;;;;;;;;;;;;;;;;5087383;28;19920;-67
2023/12/06 15:29:07;;;;;;;;;;;;;;;;;;5073326;28;19925;-67
2023/12/06 15:31:33;;;;;;;;;;;;;;;;;;5072839;28;19920;-67
2023/12/06 15:34:00;;;;;;;;;;;;;;;;;;5080858;28;19939;-66
2023/12/06 15:36:26;;;;;;;;;;;;;;;;;;5091561;28;19920;-67
2023/12/06 15:38:53;;;;;;;;;;;;;;;;;;5090544;28;19923;-67
2023/12/06 15:41:19;;;;;;;;;;;;;;;;;;5084001;28;20365;-67
2023/12/06 15:43:46;;;;;;;;;;;;;;;;;;5092283;28;19919;-67
2023/12/06 15:46:13;;;;;;;;;;;;;;;;;;5074155;28;19928;-67
2023/12/06 15:48:39;;;;;;;;;;;;;;;;;;5072363;28;20244;-67
2023/12/06 15:51:05;;;;;;;;;;;;;;;;;;5074040;28;19995;-67
2023/12/06 15:53:32;;;;;;;;;;;;;;;;;;5073146;28;20289;-67
2023/12/06 15:55:59;;;;;;;;;;;;;;;;;;5072228;28;19928;-67
2023/12/06 15:58:25;;;;;;;;;;;;;;;;;;5092608;28;20340;-67
2023/12/06 16:00:55;;;;;;;;;;;;;;;;;;5085582;28;19920;-66
2023/12/06 16:03:22;;;;;;;;;;;;;;;;;;5083109;28;19943;-67
2023/12/06 16:05:48;;;;;;;;;;;;;;;;;;5074211;28;19920;-67
2023/12/06 16:08:15;;;;;;;;;;;;;;;;;;5073068;28;19927;-66
2023/12/06 16:10:42;;;;;;;;;;;;;;;;;;5089242;28;20368;-69
2023/12/06 16:13:08;;;;;;;;;;;;;;;;;;5074756;28;19920;-69
2023/12/06 16:15:35;;;;;;;;;;;;;;;;;;5082954;28;19927;-67
2023/12/06 16:18:02;;;;;;;;;;;;;;;;;;5072803;28;20278;-67
2023/12/06 16:20:28;;;;;;;;;;;;;;;;;;5079388;28;19920;-67
2023/12/06 16:22:55;;;;;;;;;;;;;;;;;;5083299;28;19928;-67
2023/12/06 16:25:22;;;;;;;;;;;;;;;;;;5076599;28;19920;-69
2023/12/06 16:27:48;;;;;;;;;;;;;;;;;;5072728;28;19921;-67
2023/12/06 16:30:15;;;;;;;;;;;;;;;;;;5071378;28;20377;-67
2023/12/06 16:32:42;;;;;;;;;;;;;;;;;;5071273;28;19927;-66
2023/12/06 16:35:08;;;;;;;;;;;;;;;;;;5080257;28;19927;-68
2023/12/06 16:37:35;;;;;;;;;;;;;;;;;;5078450;28;19927;-67
2023/12/06 16:40:01;;;;;;;;;;;;;;;;;;5075318;28;19936;-67